Etusivu
METAR-TAF:

METAR-TAF

Lentoasemat :

Forest City, Iowa, Yhdysvallat

Leveyspiiri: 43-14-05N, Pituuspiiri: 093-37-27W, korkeus merenpinnasta: 375 m

Tämänhetkinen sää

Tämä raportti tehtiin 17 minuuttia sitten, kello 02.15 UTC
Tuuli 5 kn kaakosta
Lämpötila 3°C
Kosteus 100%
Ilmanpaine 1005 hPa
Näkyvyys: 4.8 km
Hajanaisia pilviä 400 ft:n korkeudessa
Pilvistä 1000 ft:n korkeudessa
sadetta

METAR: KFXY 190215Z AUTO 13005KT 3SM RA SCT004 OVC010 03/03 A2967 RMK AO2

Aika: 20:32 (02:32 UTC)


TAF: puuttuu

Säähavainnot ja -ennusteet yli 4000 lentoasemalta (METAR- ja TAF-raportit).

Käytössä olevat sääasemat on merkitty karttaan keltaisilla ja punaisilla pisteillä.

Aseta hiiri pisteen päälle nähdäksesi sääaseman nimen.

Klikkaa sitten nähdäksesi säähavainnot ja -ennusteet.

Kartan vaihtaminen: klikkaa mustalla rastilla varustettuja vihreitä pisteitä, niin voit zoomata sisään; viivalla varustettua vihreää pistettä, niin voit zoomata ulos tai vihreitä nuolia, niin pääset viereisille kartoille.


METAR-TAF: